createdAt,value
2019-01-05T00:02:50.951Z,0.70
2019-01-05T00:05:42.797Z,0.70
2019-01-05T00:08:34.191Z,0.70
2019-01-05T00:11:25.961Z,0.70
2019-01-05T00:14:12.847Z,0.70
2019-01-05T00:17:02.143Z,0.70
2019-01-05T00:20:01.653Z,0.70
2019-01-05T00:22:50.472Z,0.70
2019-01-05T00:25:42.115Z,0.70
2019-01-05T00:28:36.343Z,0.70
2019-01-05T00:31:25.021Z,0.70
2019-01-05T00:34:25.984Z,0.80
2019-01-05T00:37:17.926Z,0.70
2019-01-05T00:40:16.943Z,0.70
2019-01-05T00:43:01.054Z,0.70
2019-01-05T00:45:55.657Z,0.80
2019-01-05T00:48:44.228Z,0.80
2019-01-05T00:51:44.222Z,0.80
2019-01-05T00:54:31.115Z,0.80
2019-01-05T00:57:19.738Z,0.90
2019-01-05T01:00:26.760Z,0.80
2019-01-05T01:03:14.172Z,0.80
2019-01-05T01:06:01.041Z,0.80
2019-01-05T01:08:47.747Z,0.80
2019-01-05T01:11:35.061Z,0.80
2019-01-05T01:14:38.641Z,0.80
2019-01-05T01:17:33.955Z,0.80
2019-01-05T01:20:40.891Z,0.80
2019-01-05T01:23:29.167Z,0.80
2019-01-05T01:26:16.366Z,0.80
2019-01-05T01:29:11.131Z,0.80
2019-01-05T01:32:09.168Z,0.80
2019-01-05T01:35:03.863Z,0.80
2019-01-05T01:38:36.828Z,0.80
2019-01-05T01:41:27.636Z,0.80
2019-01-05T01:44:14.582Z,0.80
2019-01-05T01:47:01.556Z,0.80
2019-01-05T01:49:51.443Z,0.80
2019-01-05T01:52:51.263Z,0.80
2019-01-05T01:55:55.703Z,0.80
2019-01-05T01:58:44.848Z,0.70
2019-01-05T02:01:28.951Z,0.70
2019-01-05T02:04:20.443Z,0.80
2019-01-05T02:07:09.272Z,0.70
2019-01-05T02:10:01.630Z,0.80
2019-01-05T02:12:56.033Z,0.80
2019-01-05T02:16:00.364Z,0.80
2019-01-05T02:19:19.387Z,0.80
2019-01-05T02:22:52.567Z,0.80
2019-01-05T02:26:26.780Z,0.80
2019-01-05T02:29:53.858Z,0.80
2019-01-05T02:33:39.708Z,0.80
2019-01-05T02:37:05.363Z,0.80
2019-01-05T02:40:41.908Z,0.80
2019-01-05T02:43:52.768Z,0.80
2019-01-05T02:47:18.537Z,0.80
2019-01-05T02:50:33.659Z,0.80
2019-01-05T02:53:52.755Z,0.80
2019-01-05T02:57:24.814Z,0.80
2019-01-05T03:00:49.518Z,0.80
2019-01-05T03:04:36.055Z,0.80
2019-01-05T03:08:03.139Z,0.80
2019-01-05T03:11:35.559Z,0.70
2019-01-05T03:15:03.534Z,0.80
2019-01-05T03:18:37.842Z,0.70
2019-01-05T03:22:10.749Z,0.70
2019-01-05T03:25:43.261Z,0.70
2019-01-05T03:29:26.410Z,0.70
2019-01-05T03:33:00.263Z,0.70
2019-01-05T03:36:31.874Z,0.70
2019-01-05T03:39:51.794Z,0.70
2019-01-05T03:43:18.932Z,0.70
2019-01-05T03:46:41.151Z,0.60
2019-01-05T03:50:16.425Z,0.60
2019-01-05T03:53:56.672Z,0.50
2019-01-05T03:57:05.405Z,0.60
2019-01-05T04:00:36.016Z,0.50
2019-01-05T04:04:02.698Z,0.50
2019-01-05T04:07:27.248Z,0.50
2019-01-05T04:10:43.882Z,0.50
2019-01-05T04:14:15.115Z,0.50
2019-01-05T04:17:54.106Z,0.50
2019-01-05T04:21:21.041Z,0.50
2019-01-05T04:24:36.920Z,0.50
2019-01-05T04:28:20.453Z,0.50
2019-01-05T04:31:45.768Z,0.50
2019-01-05T04:35:18.979Z,0.50
2019-01-05T04:38:41.832Z,0.50
2019-01-05T04:42:12.921Z,0.50
2019-01-05T04:45:35.097Z,0.40
2019-01-05T04:49:09.763Z,0.40
2019-01-05T04:52:29.507Z,0.40
2019-01-05T04:55:42.792Z,0.30
2019-01-05T04:59:08.461Z,0.30
2019-01-05T05:03:00.510Z,0.20
2019-01-05T05:06:36.526Z,0.20
2019-01-05T05:09:58.323Z,0.20
2019-01-05T05:13:29.190Z,0.20
2019-01-05T05:16:42.284Z,0.20
2019-01-05T05:20:13.862Z,0.10
2019-01-05T05:23:39.095Z,0.10
2019-01-05T05:26:50.152Z,0.20
2019-01-05T05:30:42.688Z,0.10
2019-01-05T05:34:11.939Z,0.10
2019-01-05T05:37:35.092Z,0.10
2019-01-05T05:41:02.420Z,0.10
2019-01-05T05:44:40.512Z,0.20
2019-01-05T05:48:21.833Z,0.10
2019-01-05T05:52:03.399Z,0.10
2019-01-05T05:55:58.450Z,0.10
2019-01-05T05:59:13.992Z,0.10
2019-01-05T06:02:44.217Z,0.20
2019-01-05T06:06:17.637Z,0.10
2019-01-05T06:09:46.415Z,0.10
2019-01-05T06:13:14.809Z,0.20
2019-01-05T06:16:26.473Z,0.20
2019-01-05T06:19:57.876Z,0.20
2019-01-05T06:23:16.259Z,0.10
2019-01-05T06:26:49.056Z,0.10
2019-01-05T06:30:04.994Z,0.20
2019-01-05T06:33:39.955Z,0.10
2019-01-05T06:36:55.400Z,0.10
2019-01-05T06:40:23.431Z,0.10
2019-01-05T06:43:41.086Z,0.10
2019-01-05T06:47:03.283Z,0.10
2019-01-05T06:50:37.920Z,0.10
2019-01-05T06:53:55.339Z,0.20
2019-01-05T06:57:47.281Z,0.10
2019-01-05T07:01:03.971Z,0.20
2019-01-05T07:04:29.672Z,0.20
2019-01-05T07:08:09.729Z,0.20
2019-01-05T07:11:39.451Z,0.20
2019-01-05T07:14:46.598Z,0.20
2019-01-05T07:18:29.854Z,0.20
2019-01-05T07:21:55.625Z,0.20
2019-01-05T07:25:19.463Z,0.20
2019-01-05T07:28:44.847Z,0.20
2019-01-05T07:32:12.585Z,0.20
2019-01-05T07:35:31.861Z,0.20
2019-01-05T07:39:11.343Z,0.20
2019-01-05T07:42:36.742Z,0.30
2019-01-05T07:46:16.791Z,0.30
2019-01-05T07:50:05.251Z,0.30
2019-01-05T07:53:28.596Z,0.30
2019-01-05T07:57:15.970Z,0.40
2019-01-05T08:00:40.911Z,0.40
2019-01-05T08:04:40.421Z,0.40
2019-01-05T08:08:16.457Z,0.40
2019-01-05T08:11:42.241Z,0.40
2019-01-05T08:15:10.183Z,0.40
2019-01-05T08:19:03.579Z,0.40
2019-01-05T08:22:52.415Z,0.40
2019-01-05T08:26:28.335Z,0.40
2019-01-05T08:30:00.891Z,0.40
2019-01-05T08:33:33.235Z,0.40
2019-01-05T08:37:33.727Z,0.40
2019-01-05T08:40:57.550Z,0.40
2019-01-05T08:44:20.423Z,0.40
2019-01-05T08:48:00.203Z,0.40
2019-01-05T08:51:34.679Z,0.40
2019-01-05T08:55:05.431Z,0.40
2019-01-05T08:58:42.297Z,0.40
2019-01-05T09:02:16.594Z,0.40
2019-01-05T09:05:41.963Z,0.50
2019-01-05T09:08:50.223Z,0.40
2019-01-05T09:12:45.180Z,0.40
2019-01-05T09:16:11.821Z,0.40
2019-01-05T09:19:34.576Z,0.50
2019-01-05T09:22:57.087Z,0.40
2019-01-05T09:26:20.948Z,0.40
2019-01-05T09:29:45.859Z,0.40
2019-01-05T09:33:20.293Z,0.50
2019-01-05T09:36:49.259Z,0.50
2019-01-05T09:40:32.993Z,0.50
2019-01-05T09:44:10.137Z,0.50
2019-01-05T09:47:19.618Z,0.50
2019-01-05T09:50:46.716Z,0.50
2019-01-05T09:54:23.583Z,0.50
2019-01-05T09:57:28.959Z,0.50
2019-01-05T10:01:05.792Z,0.50
2019-01-05T10:04:25.940Z,0.50
2019-01-05T10:07:45.616Z,0.50
2019-01-05T10:11:15.529Z,0.50
2019-01-05T10:14:58.156Z,0.50
2019-01-05T10:18:25.155Z,0.60
2019-01-05T10:21:55.428Z,0.60
2019-01-05T10:25:24.559Z,0.60
2019-01-05T10:29:15.180Z,0.60
2019-01-05T10:32:38.224Z,0.70
2019-01-05T10:36:08.748Z,0.70
2019-01-05T10:39:56.273Z,0.70
2019-01-05T10:43:27.202Z,0.80
2019-01-05T10:47:02.836Z,0.90
2019-01-05T10:50:21.109Z,0.90
2019-01-05T10:54:03.883Z,1.00
2019-01-05T10:57:23.031Z,1.00
2019-01-05T11:00:43.709Z,1.00
2019-01-05T11:03:57.940Z,1.10
2019-01-05T11:07:48.283Z,1.10
2019-01-05T11:11:12.595Z,1.10
2019-01-05T11:14:36.487Z,1.20
2019-01-05T11:18:07.570Z,1.20
2019-01-05T11:21:35.284Z,1.20
2019-01-05T11:24:55.481Z,1.30
2019-01-05T11:28:18.567Z,1.30
2019-01-05T11:31:50.519Z,1.30
2019-01-05T11:35:21.439Z,1.30
2019-01-05T11:38:44.145Z,1.30
2019-01-05T11:41:59.506Z,1.40
2019-01-05T11:45:22.707Z,1.40
2019-01-05T11:49:01.811Z,1.40
2019-01-05T11:52:35.072Z,1.40
2019-01-05T11:56:33.050Z,1.40
2019-01-05T12:00:12.231Z,1.50
2019-01-05T12:03:51.651Z,1.50
2019-01-05T12:07:31.103Z,1.50
2019-01-05T12:11:06.658Z,1.50
2019-01-05T12:14:42.723Z,1.50
2019-01-05T12:18:30.231Z,1.50
2019-01-05T12:22:24.287Z,1.50
2019-01-05T12:25:51.371Z,1.60
2019-01-05T12:29:37.848Z,1.60
2019-01-05T12:33:20.308Z,1.70
2019-01-05T12:36:46.167Z,1.70
2019-01-05T12:40:26.694Z,1.80
2019-01-05T12:43:54.316Z,1.80
2019-01-05T12:47:17.478Z,1.80
2019-01-05T12:50:53.899Z,1.90
2019-01-05T12:54:29.163Z,1.90
2019-01-05T12:57:31.269Z,2.00
2019-01-05T13:01:01.684Z,2.00
2019-01-05T13:04:26.811Z,2.00
2019-01-05T13:07:57.761Z,2.10
2019-01-05T13:11:06.419Z,2.10
2019-01-05T13:14:27.320Z,2.10
2019-01-05T13:17:41.709Z,2.20
2019-01-05T13:21:28.812Z,2.20
2019-01-05T13:24:41.167Z,2.20
2019-01-05T13:28:18.195Z,2.20
2019-01-05T13:31:32.308Z,2.20
2019-01-05T13:35:02.200Z,2.20
2019-01-05T13:38:24.944Z,2.20
2019-01-05T13:41:52.187Z,2.20
2019-01-05T13:45:34.062Z,2.20
2019-01-05T13:49:12.807Z,2.20
2019-01-05T13:52:57.196Z,2.30
2019-01-05T13:55:59.580Z,2.30
2019-01-05T13:58:56.029Z,2.30
2019-01-05T14:01:44.284Z,2.40
2019-01-05T14:04:35.328Z,2.40
2019-01-05T14:07:22.229Z,2.40
2019-01-05T14:10:09.281Z,2.40
2019-01-05T14:12:57.194Z,2.40
2019-01-05T14:15:44.540Z,2.40
2019-01-05T14:18:48.452Z,2.40
2019-01-05T14:21:28.358Z,2.50
2019-01-05T14:24:28.728Z,2.50
2019-01-05T14:27:16.514Z,2.50
2019-01-05T14:30:03.660Z,2.50
2019-01-05T14:32:50.271Z,2.50
2019-01-05T14:35:37.511Z,2.50
2019-01-05T14:38:24.397Z,2.50
2019-01-05T14:41:21.431Z,2.50
2019-01-05T14:44:10.172Z,2.50
2019-01-05T14:47:10.786Z,2.50
2019-01-05T14:50:08.260Z,2.50
2019-01-05T14:53:14.596Z,2.50
2019-01-05T14:56:01.730Z,2.60
2019-01-05T14:58:50.444Z,2.60
2019-01-05T15:01:42.015Z,2.60
2019-01-05T15:04:45.379Z,2.60
2019-01-05T15:07:24.122Z,2.60
2019-01-05T15:10:22.585Z,2.60
2019-01-05T15:13:14.291Z,2.70
2019-01-05T15:16:01.816Z,2.70
2019-01-05T15:18:49.075Z,2.70
2019-01-05T15:21:40.068Z,2.70
2019-01-05T15:24:42.977Z,2.70
2019-01-05T15:27:30.685Z,2.70
2019-01-05T15:30:17.674Z,2.70
2019-01-05T15:33:04.698Z,2.70
2019-01-05T15:35:52.095Z,2.70
2019-01-05T15:38:35.431Z,2.70
2019-01-05T15:41:22.274Z,2.70
2019-01-05T15:44:16.963Z,2.80
2019-01-05T15:47:02.399Z,2.80
2019-01-05T15:50:05.897Z,2.80
2019-01-05T15:52:54.183Z,2.80
2019-01-05T15:55:51.569Z,2.80
2019-01-05T15:58:56.262Z,2.80
2019-01-05T16:01:43.322Z,2.80
2019-01-05T16:04:30.500Z,2.80
2019-01-05T16:07:17.485Z,2.80
2019-01-05T16:10:04.518Z,2.80
2019-01-05T16:12:58.607Z,2.80
2019-01-05T16:15:45.776Z,2.90
2019-01-05T16:18:33.080Z,2.90
2019-01-05T16:21:20.099Z,2.90
2019-01-05T16:24:08.367Z,2.90
2019-01-05T16:27:05.822Z,2.80
2019-01-05T16:29:56.570Z,2.90
2019-01-05T16:32:43.627Z,2.90
2019-01-05T16:35:26.342Z,2.90
2019-01-05T16:38:20.130Z,2.90
2019-01-05T16:41:06.831Z,2.90
2019-01-05T16:43:53.572Z,3.00
2019-01-05T16:46:41.996Z,2.90
2019-01-05T16:49:39.654Z,2.90
2019-01-05T16:52:27.642Z,2.90
2019-01-05T16:55:24.860Z,2.90
2019-01-05T16:58:11.920Z,2.90
2019-01-05T17:00:58.739Z,2.90
2019-01-05T17:03:46.057Z,2.90
2019-01-05T17:06:40.766Z,3.00
2019-01-05T17:09:34.861Z,3.00
2019-01-05T17:12:38.229Z,3.00
2019-01-05T17:15:44.842Z,3.00
2019-01-05T17:18:35.780Z,3.00
2019-01-05T17:21:22.502Z,3.00
2019-01-05T17:24:09.687Z,3.00
2019-01-05T17:26:56.210Z,3.00
2019-01-05T17:29:56.400Z,3.00
2019-01-05T17:32:56.511Z,3.10
2019-01-05T17:35:47.341Z,3.10
2019-01-05T17:38:34.838Z,3.10
2019-01-05T17:41:21.959Z,3.10
2019-01-05T17:44:08.719Z,3.10
2019-01-05T17:46:55.640Z,3.20
2019-01-05T17:49:41.683Z,3.20
2019-01-05T17:52:35.966Z,3.20
2019-01-05T17:55:36.623Z,3.20
2019-01-05T17:58:25.318Z,3.20
2019-01-05T18:01:28.805Z,3.20
2019-01-05T18:04:20.682Z,3.20
2019-01-05T18:07:18.353Z,3.30
2019-01-05T18:09:59.110Z,3.30
2019-01-05T18:12:56.766Z,3.30
2019-01-05T18:16:03.195Z,3.30
2019-01-05T18:19:02.438Z,3.30
2019-01-05T18:21:56.572Z,3.30
2019-01-05T18:24:37.295Z,3.30
2019-01-05T18:27:24.447Z,3.40
2019-01-05T18:30:10.934Z,3.40
2019-01-05T18:33:01.934Z,3.40
2019-01-05T18:35:48.660Z,3.40
2019-01-05T18:38:35.477Z,3.40
2019-01-05T18:41:22.616Z,3.30
2019-01-05T18:44:06.805Z,3.40
2019-01-05T18:46:53.565Z,3.40
2019-01-05T18:49:59.942Z,3.40
2019-01-05T18:52:42.691Z,3.40
2019-01-05T18:55:29.627Z,3.40
2019-01-05T18:58:15.614Z,3.40
2019-01-05T19:01:03.932Z,3.40
2019-01-05T19:04:01.194Z,3.40
2019-01-05T19:06:55.572Z,3.40
2019-01-05T19:09:42.652Z,3.40
2019-01-05T19:12:33.418Z,3.50
2019-01-05T19:15:20.587Z,3.50
2019-01-05T19:18:02.539Z,3.50
2019-01-05T19:21:02.139Z,3.50
2019-01-05T19:23:48.902Z,3.50
2019-01-05T19:26:40.213Z,3.50
2019-01-05T19:29:26.779Z,3.50
2019-01-05T19:32:13.751Z,3.60
2019-01-05T19:35:17.130Z,3.60
2019-01-05T19:38:16.914Z,3.70
2019-01-05T19:41:03.810Z,3.70
2019-01-05T19:44:10.124Z,3.70
2019-01-05T19:47:13.850Z,3.70
2019-01-05T19:50:14.009Z,3.70
2019-01-05T19:53:14.294Z,3.80
2019-01-05T19:56:20.227Z,3.80
2019-01-05T19:59:17.435Z,3.80
2019-01-05T20:02:08.674Z,3.80
2019-01-05T20:04:55.432Z,3.80
2019-01-05T20:07:42.708Z,3.80
2019-01-05T20:10:36.567Z,3.80
2019-01-05T20:13:23.502Z,3.80
2019-01-05T20:16:14.425Z,3.80
2019-01-05T20:18:56.598Z,3.80
2019-01-05T20:21:39.462Z,3.80
2019-01-05T20:24:21.106Z,3.80
2019-01-05T20:27:18.006Z,3.80
2019-01-05T20:30:05.898Z,3.80
2019-01-05T20:32:50.310Z,3.80
2019-01-05T20:35:56.934Z,3.90
2019-01-05T20:38:42.178Z,3.90
2019-01-05T20:41:30.835Z,3.90
2019-01-05T20:44:20.054Z,3.90
2019-01-05T20:47:20.634Z,3.90
2019-01-05T20:50:07.782Z,3.90
2019-01-05T20:53:08.042Z,3.90
2019-01-05T20:55:54.822Z,3.90
2019-01-05T20:58:58.790Z,3.90
2019-01-05T21:01:47.043Z,3.90
2019-01-05T21:04:35.575Z,3.90
2019-01-05T21:07:22.239Z,3.90
2019-01-05T21:10:08.917Z,3.90
2019-01-05T21:12:52.494Z,3.90
2019-01-05T21:15:35.641Z,4.00
2019-01-05T21:18:23.622Z,3.90
2019-01-05T21:21:10.903Z,3.90
2019-01-05T21:24:14.546Z,3.90
2019-01-05T21:27:00.939Z,4.00
2019-01-05T21:29:47.742Z,4.00
2019-01-05T21:32:32.972Z,4.00
2019-01-05T21:35:40.008Z,4.00
2019-01-05T21:38:28.502Z,4.00
2019-01-05T21:41:11.848Z,4.00
2019-01-05T21:44:00.282Z,4.10
2019-01-05T21:46:48.468Z,4.00
2019-01-05T21:49:37.419Z,4.10
2019-01-05T21:52:24.431Z,4.10
2019-01-05T21:55:11.090Z,4.00
2019-01-05T21:57:58.207Z,4.10
2019-01-05T22:00:45.038Z,4.00
2019-01-05T22:03:36.878Z,4.10
2019-01-05T22:06:30.686Z,4.10
2019-01-05T22:09:18.036Z,4.10
2019-01-05T22:12:05.226Z,4.10
2019-01-05T22:14:54.915Z,4.10
2019-01-05T22:17:48.934Z,4.10
2019-01-05T22:20:38.206Z,4.10
2019-01-05T22:23:26.431Z,4.10
2019-01-05T22:26:33.080Z,4.10
2019-01-05T22:29:28.772Z,4.10
2019-01-05T22:32:15.788Z,4.10
2019-01-05T22:34:58.414Z,4.10
2019-01-05T22:37:44.214Z,4.10
2019-01-05T22:40:31.568Z,4.10
2019-01-05T22:43:14.687Z,4.10
2019-01-05T22:46:10.427Z,4.20
2019-01-05T22:48:57.024Z,4.10
2019-01-05T22:51:55.382Z,4.20
2019-01-05T22:54:46.971Z,4.20
2019-01-05T22:57:38.038Z,4.20
2019-01-05T23:00:27.047Z,4.20
2019-01-05T23:03:22.089Z,4.20
2019-01-05T23:06:09.776Z,4.20
2019-01-05T23:08:56.972Z,4.20
2019-01-05T23:11:47.531Z,4.20
2019-01-05T23:14:48.219Z,4.20
2019-01-05T23:17:42.104Z,4.20
2019-01-05T23:20:29.131Z,4.20
2019-01-05T23:23:16.210Z,4.20
2019-01-05T23:26:03.043Z,4.20
2019-01-05T23:29:14.676Z,4.20
2019-01-05T23:31:55.666Z,4.20
2019-01-05T23:34:43.092Z,4.20
2019-01-05T23:37:30.303Z,4.20
2019-01-05T23:40:33.748Z,4.10
2019-01-05T23:43:40.053Z,4.20
2019-01-05T23:46:28.378Z,4.20
2019-01-05T23:49:15.566Z,4.20
2019-01-05T23:52:09.887Z,4.20
2019-01-05T23:55:04.567Z,4.20
2019-01-05T23:57:59.050Z,4.20
